createdAt,value
2022-08-19T00:00:32.440Z,3.90
2022-08-19T00:03:26.030Z,3.30
2022-08-19T00:06:01.528Z,3.40
2022-08-19T00:08:30.666Z,3.25
2022-08-19T00:11:11.708Z,3.60
2022-08-19T00:13:57.843Z,3.97
2022-08-19T00:16:34.493Z,3.15
2022-08-19T00:19:24.575Z,3.20
2022-08-19T00:22:09.317Z,3.13
2022-08-19T00:26:05.078Z,3.55
2022-08-19T00:32:28.773Z,2.95
2022-08-19T00:35:12.621Z,3.72
2022-08-19T00:37:54.918Z,3.78
2022-08-19T00:40:36.079Z,3.83
2022-08-19T00:43:14.824Z,3.53
2022-08-19T00:45:46.540Z,3.92
2022-08-19T00:48:25.756Z,3.35
2022-08-19T00:51:40.273Z,3.20
2022-08-19T00:54:10.464Z,3.50
2022-08-19T00:56:54.251Z,3.90
2022-08-19T01:00:13.427Z,3.70
2022-08-19T01:08:35.157Z,4.43
2022-08-19T01:12:15.813Z,5.25
2022-08-19T01:15:32.247Z,4.50
2022-08-19T01:18:10.318Z,4.50
2022-08-19T01:20:44.408Z,4.68
2022-08-19T01:23:27.530Z,4.35
2022-08-19T01:27:29.519Z,4.70
2022-08-19T01:30:39.695Z,4.70
2022-08-19T01:49:05.251Z,4.65
2022-08-19T01:51:39.590Z,4.10
2022-08-19T01:54:10.678Z,4.10
2022-08-19T01:56:39.837Z,4.40
2022-08-19T01:59:15.593Z,4.20
2022-08-19T02:01:44.569Z,4.03
2022-08-19T02:04:12.561Z,4.22
2022-08-19T02:07:40.139Z,4.75
2022-08-19T02:14:39.093Z,5.22
2022-08-19T02:17:38.004Z,4.25
2022-08-19T02:20:14.306Z,5.05
2022-08-19T02:22:45.396Z,4.15
2022-08-19T02:25:16.047Z,4.63
2022-08-19T02:27:46.835Z,4.93
2022-08-19T02:33:46.933Z,4.10
2022-08-19T02:36:16.525Z,3.53
2022-08-19T02:38:54.966Z,4.55
2022-08-19T02:41:30.695Z,3.88
2022-08-19T02:44:26.477Z,4.55
2022-08-19T02:46:52.527Z,4.22
2022-08-19T02:49:21.549Z,4.10
2022-08-19T02:51:49.759Z,4.50
2022-08-19T02:54:20.526Z,3.53
2022-08-19T02:56:48.164Z,4.20
2022-08-19T02:59:15.876Z,4.25
2022-08-19T03:01:44.138Z,4.03
2022-08-19T03:04:15.818Z,4.20
2022-08-19T03:06:54.066Z,3.97
2022-08-19T03:09:24.482Z,4.65
2022-08-19T03:11:52.984Z,3.80
2022-08-19T03:14:20.500Z,3.92
2022-08-19T03:16:53.451Z,3.88
2022-08-19T03:19:24.993Z,4.07
2022-08-19T03:21:53.321Z,4.18
2022-08-19T03:24:24.619Z,4.18
2022-08-19T03:27:00.371Z,3.90
2022-08-19T03:29:34.333Z,4.00
2022-08-19T03:32:31.708Z,4.05
2022-08-19T03:35:01.517Z,4.22
2022-08-19T03:37:29.620Z,4.75
2022-08-19T03:39:58.076Z,4.32
2022-08-19T03:42:38.607Z,4.50
2022-08-19T03:45:18.204Z,4.28
2022-08-19T03:47:53.804Z,4.90
2022-08-19T03:50:21.652Z,4.43
2022-08-19T03:52:53.529Z,4.45
2022-08-19T04:04:29.175Z,4.85
2022-08-19T04:10:32.040Z,4.57
2022-08-19T04:13:02.135Z,5.55
2022-08-19T04:15:44.632Z,5.22
2022-08-19T04:23:52.751Z,4.82
2022-08-19T04:30:09.475Z,4.90
2022-08-19T04:44:52.576Z,4.93
2022-08-19T04:56:01.306Z,4.47
2022-08-19T04:58:45.781Z,4.78
2022-08-19T05:01:56.729Z,4.93
2022-08-19T05:05:18.490Z,4.88
2022-08-19T05:12:34.411Z,5.25
2022-08-19T05:16:34.530Z,5.30
2022-08-19T05:23:50.759Z,6.35
2022-08-19T05:26:52.899Z,7.32
2022-08-19T05:33:42.890Z,6.63
2022-08-19T05:36:22.078Z,7.13
2022-08-19T05:41:40.070Z,6.43
2022-08-19T05:44:15.185Z,5.57
2022-08-19T05:46:52.620Z,6.20
2022-08-19T05:49:24.253Z,6.40
2022-08-19T05:52:01.552Z,6.45
2022-08-19T05:54:57.067Z,6.65
2022-08-19T06:11:38.187Z,6.22
2022-08-19T06:14:16.476Z,5.70
2022-08-19T06:16:45.077Z,6.88
2022-08-19T06:19:16.814Z,7.15
2022-08-19T06:21:48.513Z,7.45
2022-08-19T06:24:23.087Z,6.97
2022-08-19T06:27:03.857Z,6.82
2022-08-19T06:29:40.122Z,7.40
2022-08-19T06:32:09.628Z,7.05
2022-08-19T06:34:37.273Z,6.18
2022-08-19T06:37:06.743Z,6.47
2022-08-19T06:39:38.364Z,7.50
2022-08-19T06:42:11.136Z,7.68
2022-08-19T06:44:42.662Z,6.72
2022-08-19T06:47:23.618Z,6.10
2022-08-19T06:50:03.498Z,6.13
2022-08-19T06:52:36.683Z,5.05
2022-08-19T06:55:19.027Z,6.38
2022-08-19T06:58:18.159Z,7.07
2022-08-19T07:01:38.951Z,6.47
2022-08-19T07:04:26.119Z,6.68
2022-08-19T07:07:20.022Z,6.13
2022-08-19T07:10:09.379Z,6.47
2022-08-19T07:12:46.794Z,6.18
2022-08-19T07:15:25.204Z,6.18
2022-08-19T07:17:57.904Z,7.85
2022-08-19T07:20:43.451Z,6.47
2022-08-19T07:23:22.180Z,6.35
2022-08-19T07:28:52.897Z,6.80
2022-08-19T07:31:27.624Z,5.88
2022-08-19T07:34:01.111Z,5.93
2022-08-19T07:36:33.363Z,6.38
2022-08-19T07:39:07.881Z,5.40
2022-08-19T07:41:50.398Z,5.53
2022-08-19T07:44:29.637Z,5.13
2022-08-19T07:47:48.157Z,5.05
2022-08-19T07:50:13.391Z,4.35
2022-08-19T07:52:51.082Z,5.45
2022-08-19T07:55:41.080Z,4.57
2022-08-19T07:58:39.866Z,4.78
2022-08-19T08:01:26.165Z,5.43
2022-08-19T08:04:27.323Z,4.72
2022-08-19T08:07:21.706Z,4.53
2022-08-19T08:10:21.157Z,4.80
2022-08-19T08:13:09.354Z,5.22
2022-08-19T08:15:48.635Z,5.55
2022-08-19T08:18:35.485Z,5.00
2022-08-19T08:21:06.102Z,4.60
2022-08-19T08:23:33.586Z,5.13
2022-08-19T08:26:01.490Z,4.75
2022-08-19T08:28:30.727Z,5.20
2022-08-19T08:30:59.387Z,4.93
2022-08-19T08:33:33.991Z,4.65
2022-08-19T08:36:06.233Z,5.55
2022-08-19T08:38:38.938Z,4.40
2022-08-19T08:41:45.074Z,4.20
2022-08-19T08:44:20.202Z,4.75
2022-08-19T08:46:55.399Z,4.53
2022-08-19T08:49:35.228Z,4.40
2022-08-19T08:52:14.854Z,4.25
2022-08-19T08:54:49.068Z,4.60
2022-08-19T08:58:04.363Z,4.97
2022-08-19T09:00:35.725Z,4.65
2022-08-19T09:03:23.160Z,4.50
2022-08-19T09:06:11.999Z,4.38
2022-08-19T09:08:56.868Z,4.63
2022-08-19T09:11:49.796Z,4.45
2022-08-19T09:14:52.636Z,4.40
2022-08-19T09:17:33.928Z,4.68
2022-08-19T09:20:24.464Z,4.13
2022-08-19T09:23:18.026Z,4.50
2022-08-19T09:26:35.314Z,4.55
2022-08-19T09:29:17.967Z,3.88
2022-08-19T09:31:59.488Z,4.05
2022-08-19T09:35:08.869Z,4.93
2022-08-19T09:37:47.285Z,4.80
2022-08-19T09:40:20.030Z,4.68
2022-08-19T09:43:11.433Z,4.50
2022-08-19T09:45:50.002Z,4.28
2022-08-19T09:48:19.129Z,3.83
2022-08-19T09:50:52.721Z,5.13
2022-08-19T09:53:25.475Z,4.57
2022-08-19T09:55:55.889Z,3.97
2022-08-19T09:58:28.631Z,3.78
2022-08-19T10:00:57.610Z,4.35
2022-08-19T10:03:30.112Z,4.28
2022-08-19T10:06:01.803Z,4.32
2022-08-19T10:08:34.199Z,3.72
2022-08-19T10:11:27.266Z,4.00
2022-08-19T10:13:55.836Z,4.13
2022-08-19T10:16:26.055Z,3.85
2022-08-19T10:18:59.893Z,4.20
2022-08-19T10:21:33.266Z,4.30
2022-08-19T10:24:05.116Z,3.70
2022-08-19T10:26:38.218Z,4.55
2022-08-19T10:29:09.481Z,4.15
2022-08-19T10:31:59.913Z,3.28
2022-08-19T10:34:28.429Z,3.47
2022-08-19T10:37:00.504Z,4.05
2022-08-19T10:39:32.602Z,3.67
2022-08-19T10:42:05.018Z,3.78
2022-08-19T10:44:33.235Z,4.30
2022-08-19T10:47:03.641Z,4.00
2022-08-19T10:50:14.617Z,3.70
2022-08-19T10:52:49.249Z,3.85
2022-08-19T10:55:47.741Z,3.80
2022-08-19T10:58:23.550Z,3.75
2022-08-19T11:03:29.247Z,4.38
2022-08-19T11:06:08.036Z,4.03
2022-08-19T11:08:38.737Z,3.85
2022-08-19T11:11:07.968Z,4.35
2022-08-19T11:13:38.453Z,3.65
2022-08-19T11:16:15.030Z,3.85
2022-08-19T11:18:49.873Z,3.55
2022-08-19T11:21:22.233Z,3.58
2022-08-19T11:23:54.376Z,3.70
2022-08-19T11:26:24.605Z,4.25
2022-08-19T11:28:55.319Z,4.10
2022-08-19T11:31:29.107Z,3.95
2022-08-19T11:33:58.470Z,3.05
2022-08-19T11:36:25.780Z,3.85
2022-08-19T11:38:53.858Z,3.60
2022-08-19T11:41:24.201Z,4.20
2022-08-19T11:43:53.929Z,3.72
2022-08-19T11:46:23.439Z,4.35
2022-08-19T11:48:51.705Z,4.10
2022-08-19T11:51:25.925Z,4.20
2022-08-19T11:53:55.759Z,4.38
2022-08-19T11:56:25.159Z,3.60
2022-08-19T11:58:53.491Z,3.58
2022-08-19T12:01:23.660Z,4.47
2022-08-19T12:03:53.770Z,3.95
2022-08-19T12:06:29.477Z,4.00
2022-08-19T12:09:02.909Z,4.95
2022-08-19T12:11:31.290Z,4.13
2022-08-19T12:14:02.472Z,4.10
2022-08-19T12:16:33.719Z,4.18
2022-08-19T12:19:05.166Z,4.63
2022-08-19T12:21:41.627Z,3.95
2022-08-19T12:24:36.755Z,4.00
2022-08-19T12:27:12.857Z,4.03
2022-08-19T12:29:46.601Z,4.85
2022-08-19T12:32:16.859Z,4.70
2022-08-19T12:34:53.966Z,4.57
2022-08-19T12:37:24.852Z,4.35
2022-08-19T12:39:55.217Z,4.30
2022-08-19T12:42:25.171Z,4.15
2022-08-19T12:44:57.236Z,4.55
2022-08-19T12:47:27.561Z,4.70
2022-08-19T12:49:56.139Z,4.25
2022-08-19T12:52:26.878Z,4.28
2022-08-19T12:54:58.134Z,4.18
2022-08-19T12:57:32.995Z,4.45
2022-08-19T13:00:17.096Z,4.00
2022-08-19T13:02:46.899Z,4.40
2022-08-19T13:05:17.124Z,3.85
2022-08-19T13:07:47.585Z,3.40
2022-08-19T13:10:17.354Z,4.15
2022-08-19T13:12:48.170Z,4.32
2022-08-19T13:15:24.517Z,3.80
2022-08-19T13:18:01.099Z,4.20
2022-08-19T13:20:46.719Z,4.00
2022-08-19T13:23:41.302Z,3.72
2022-08-19T13:26:20.022Z,4.45
2022-08-19T13:29:20.960Z,3.83
2022-08-19T13:32:17.711Z,3.58
2022-08-19T13:34:49.765Z,4.03
2022-08-19T13:37:17.932Z,4.10
2022-08-19T13:39:48.753Z,4.70
2022-08-19T13:42:29.387Z,3.65
2022-08-19T13:44:57.680Z,3.75
2022-08-19T13:47:28.150Z,4.15
2022-08-19T13:50:04.204Z,4.22
2022-08-19T13:52:46.306Z,4.55
2022-08-19T13:55:50.630Z,3.60
2022-08-19T13:58:28.530Z,4.43
2022-08-19T14:01:00.826Z,6.30
2022-08-19T14:03:29.146Z,4.47
2022-08-19T14:05:57.515Z,3.88
2022-08-19T14:08:26.560Z,4.57
2022-08-19T14:10:55.463Z,3.28
2022-08-19T14:13:24.896Z,3.90
2022-08-19T14:15:52.427Z,4.32
2022-08-19T14:18:24.413Z,4.75
2022-08-19T14:21:00.527Z,3.25
2022-08-19T14:23:29.004Z,3.95
2022-08-19T14:26:13.464Z,4.72
2022-08-19T14:28:48.787Z,3.88
2022-08-19T14:31:20.685Z,4.68
2022-08-19T14:33:59.186Z,4.22
2022-08-19T14:36:39.278Z,4.25
2022-08-19T14:39:11.295Z,3.80
2022-08-19T14:41:49.703Z,4.13
2022-08-19T14:44:28.106Z,4.15
2022-08-19T14:47:00.688Z,4.70
2022-08-19T14:49:48.412Z,5.15
2022-08-19T14:52:22.740Z,4.63
2022-08-19T14:54:50.525Z,4.38
2022-08-19T14:57:19.895Z,4.38
2022-08-19T14:59:47.543Z,4.80
2022-08-19T15:02:33.362Z,4.82
2022-08-19T15:05:03.147Z,5.10
2022-08-19T15:07:31.762Z,5.40
2022-08-19T15:10:03.208Z,4.72
2022-08-19T15:12:43.467Z,5.20
2022-08-19T15:15:15.914Z,4.43
2022-08-19T15:17:54.850Z,5.45
2022-08-19T15:20:25.843Z,5.13
2022-08-19T15:22:55.933Z,5.05
2022-08-19T15:25:30.133Z,5.22
2022-08-19T15:28:01.159Z,5.13
2022-08-19T15:30:32.595Z,5.30
2022-08-19T15:33:01.723Z,4.57
2022-08-19T15:35:29.219Z,7.80
2022-08-19T15:37:57.064Z,7.30
2022-08-19T15:40:27.465Z,6.68
2022-08-19T15:42:59.065Z,6.65
2022-08-19T15:45:33.016Z,10.55
2022-08-19T15:48:02.150Z,7.15
2022-08-19T15:50:32.325Z,8.10
2022-08-19T15:53:09.110Z,8.43
2022-08-19T15:55:43.097Z,8.77
2022-08-19T16:01:20.873Z,7.70
2022-08-19T16:04:12.655Z,6.75
2022-08-19T16:06:48.696Z,7.82
2022-08-19T16:09:17.664Z,7.10
2022-08-19T16:11:56.429Z,7.72
2022-08-19T16:14:25.329Z,7.07
2022-08-19T16:17:01.632Z,6.80
2022-08-19T16:19:32.611Z,7.53
2022-08-19T16:22:08.525Z,7.45
2022-08-19T16:24:37.742Z,6.53
2022-08-19T16:27:06.345Z,9.75
2022-08-19T16:29:39.322Z,8.48
2022-08-19T16:32:14.743Z,9.25
2022-08-19T16:34:43.698Z,9.07
2022-08-19T16:37:11.489Z,7.70
2022-08-19T16:39:39.773Z,9.20
2022-08-19T16:42:16.119Z,9.27
2022-08-19T16:44:46.047Z,9.77
2022-08-19T16:47:15.684Z,7.13
2022-08-19T16:49:52.906Z,7.85
2022-08-19T16:52:27.341Z,7.68
2022-08-19T16:54:55.848Z,8.20
2022-08-19T16:57:24.166Z,8.00
2022-08-19T17:00:03.579Z,10.02
2022-08-19T17:02:46.340Z,12.63
2022-08-19T17:05:20.760Z,12.52
2022-08-19T17:08:03.049Z,11.18
2022-08-19T17:10:32.363Z,11.20
2022-08-19T17:13:29.281Z,10.88
2022-08-19T17:15:59.295Z,9.15
2022-08-19T17:18:31.676Z,6.28
2022-08-19T17:21:02.055Z,6.10
2022-08-19T17:23:42.382Z,6.65
2022-08-19T17:26:18.122Z,6.88
2022-08-19T17:28:53.135Z,6.35
2022-08-19T17:31:27.554Z,5.55
2022-08-19T17:34:04.281Z,5.53
2022-08-19T17:40:35.599Z,6.25
2022-08-19T17:43:05.808Z,5.45
2022-08-19T17:45:33.170Z,8.23
2022-08-19T17:48:03.394Z,7.22
2022-08-19T17:50:36.224Z,8.23
2022-08-19T17:53:05.790Z,6.82
2022-08-19T17:55:34.738Z,7.13
2022-08-19T17:58:06.211Z,8.02
2022-08-19T18:00:39.557Z,8.15
2022-08-19T18:03:21.712Z,7.07
2022-08-19T18:05:50.668Z,7.03
2022-08-19T18:08:19.348Z,6.75
2022-08-19T18:10:46.820Z,6.55
2022-08-19T18:13:17.280Z,8.48
2022-08-19T18:15:45.058Z,7.13
2022-08-19T18:18:15.005Z,7.70
2022-08-19T18:21:19.934Z,7.57
2022-08-19T18:24:37.703Z,7.15
2022-08-19T18:27:42.470Z,6.35
2022-08-19T18:30:44.146Z,6.28
2022-08-19T18:33:15.721Z,8.25
2022-08-19T18:35:46.715Z,6.63
2022-08-19T18:38:37.895Z,6.70
2022-08-19T18:41:25.116Z,7.00
2022-08-19T18:44:12.393Z,7.47
2022-08-19T18:46:58.420Z,6.60
2022-08-19T18:49:31.960Z,7.88
2022-08-19T18:52:00.218Z,8.98
2022-08-19T18:54:29.328Z,7.75
2022-08-19T18:56:57.296Z,6.88
2022-08-19T18:59:29.830Z,7.22
2022-08-19T19:02:00.612Z,7.95
2022-08-19T19:04:38.785Z,8.43
2022-08-19T19:07:08.829Z,7.35
2022-08-19T19:09:38.506Z,7.15
2022-08-19T19:12:30.893Z,7.43
2022-08-19T19:14:59.055Z,7.28
2022-08-19T19:17:28.401Z,9.52
2022-08-19T19:19:59.949Z,7.28
2022-08-19T19:22:29.802Z,8.45
2022-08-19T19:24:59.545Z,8.52
2022-08-19T19:27:27.148Z,8.88
2022-08-19T19:29:55.832Z,7.43
2022-08-19T19:32:28.713Z,10.70
2022-08-19T19:34:59.027Z,11.10
2022-08-19T19:37:26.629Z,8.48
2022-08-19T19:39:54.317Z,7.82
2022-08-19T19:42:24.382Z,8.57
2022-08-19T19:44:56.273Z,8.88
2022-08-19T19:47:25.833Z,8.43
2022-08-19T19:50:15.212Z,7.28
2022-08-19T19:52:47.183Z,8.57
2022-08-19T19:55:20.179Z,7.63
2022-08-19T19:57:49.082Z,7.68
2022-08-19T20:00:19.177Z,7.30
2022-08-19T20:02:50.398Z,8.05
2022-08-19T20:05:21.639Z,8.43
2022-08-19T20:08:09.820Z,8.95
2022-08-19T20:10:40.108Z,9.13
2022-08-19T20:13:09.597Z,7.88
2022-08-19T20:15:46.039Z,7.50
2022-08-19T20:18:15.803Z,7.80
2022-08-19T20:20:50.218Z,8.25
2022-08-19T20:23:22.392Z,8.55
2022-08-19T20:25:59.370Z,7.55
2022-08-19T20:29:13.383Z,7.30
2022-08-19T20:31:57.219Z,10.82
2022-08-19T20:34:52.076Z,10.73
2022-08-19T20:37:24.817Z,8.55
2022-08-19T20:39:52.498Z,6.80
2022-08-19T20:42:20.384Z,8.32
2022-08-19T20:44:48.005Z,7.25
2022-08-19T20:47:15.814Z,7.25
2022-08-19T20:49:43.143Z,6.85
2022-08-19T20:52:11.010Z,7.03
2022-08-19T20:54:38.576Z,6.75
2022-08-19T20:57:06.029Z,8.52
2022-08-19T20:59:41.955Z,8.05
2022-08-19T21:02:12.428Z,7.18
2022-08-19T21:04:39.875Z,7.75
2022-08-19T21:07:09.558Z,7.22
2022-08-19T21:09:38.258Z,6.53
2022-08-19T21:12:07.268Z,6.25
2022-08-19T21:14:41.883Z,5.78
2022-08-19T21:17:09.726Z,6.32
2022-08-19T21:19:37.485Z,6.65
2022-08-19T21:22:05.765Z,7.75
2022-08-19T21:24:33.834Z,6.63
2022-08-19T21:27:01.141Z,6.18
2022-08-19T21:29:28.461Z,6.90
2022-08-19T21:31:56.045Z,6.40
2022-08-19T21:34:23.599Z,6.70
2022-08-19T21:36:51.261Z,6.35
2022-08-19T21:39:18.973Z,6.18
2022-08-19T21:41:46.590Z,6.00
2022-08-19T21:44:14.746Z,6.22
2022-08-19T21:46:42.244Z,6.35
2022-08-19T21:49:13.876Z,6.90
2022-08-19T21:51:45.921Z,9.95
2022-08-19T21:54:14.373Z,7.07
2022-08-19T21:56:42.127Z,7.35
2022-08-19T21:59:10.070Z,6.72
2022-08-19T22:01:37.898Z,6.90
2022-08-19T22:04:05.548Z,6.18
2022-08-19T22:06:34.409Z,6.63
2022-08-19T22:09:02.119Z,6.78
2022-08-19T22:11:30.557Z,6.53
2022-08-19T22:13:57.983Z,6.43
2022-08-19T22:16:25.766Z,6.95
2022-08-19T22:18:54.281Z,7.15
2022-08-19T22:21:39.771Z,6.57
2022-08-19T22:24:09.244Z,7.38
2022-08-19T22:26:36.641Z,6.65
2022-08-19T22:29:04.091Z,7.40
2022-08-19T22:31:32.382Z,6.35
2022-08-19T22:34:03.706Z,7.55
2022-08-19T22:36:32.359Z,7.47
2022-08-19T22:39:00.422Z,7.60
2022-08-19T22:41:27.916Z,7.20
2022-08-19T22:43:57.634Z,7.75
2022-08-19T22:46:25.242Z,7.45
2022-08-19T22:49:00.588Z,7.20
2022-08-19T22:51:48.067Z,7.43
2022-08-19T22:54:16.292Z,6.65
2022-08-19T22:56:44.094Z,6.50
2022-08-19T22:59:11.632Z,6.90
2022-08-19T23:01:41.877Z,6.47
2022-08-19T23:04:10.355Z,6.53
2022-08-19T23:06:41.451Z,7.70
2022-08-19T23:09:10.466Z,7.32
2022-08-19T23:11:42.257Z,9.25
2022-08-19T23:14:11.504Z,7.45
2022-08-19T23:16:41.398Z,6.72
2022-08-19T23:19:10.476Z,6.22
2022-08-19T23:21:43.214Z,6.78
2022-08-19T23:24:12.005Z,7.20
2022-08-19T23:26:59.940Z,7.00
2022-08-19T23:29:46.135Z,6.82
2022-08-19T23:32:16.206Z,7.20
2022-08-19T23:34:45.199Z,7.47
2022-08-19T23:37:12.636Z,7.00
2022-08-19T23:39:40.793Z,7.90
2022-08-19T23:42:14.265Z,6.82
2022-08-19T23:44:51.949Z,7.05
2022-08-19T23:47:21.492Z,7.63
2022-08-19T23:49:49.002Z,7.63
2022-08-19T23:52:16.432Z,7.38
2022-08-19T23:54:44.195Z,7.75
2022-08-19T23:57:14.409Z,6.63
2022-08-19T23:59:45.467Z,6.88
